createdAt,value
2018-02-16T00:00:07.923Z,87.70
2018-02-16T00:03:32.043Z,87.80
2018-02-16T00:06:56.746Z,87.70
2018-02-16T00:10:20.981Z,88.20
2018-02-16T00:13:44.419Z,88.10
2018-02-16T00:17:08.468Z,86.70
2018-02-16T00:20:31.753Z,86.70
2018-02-16T00:23:55.024Z,86.80
2018-02-16T00:27:18.290Z,87.70
2018-02-16T00:30:41.554Z,87.20
2018-02-16T00:34:04.933Z,87.10
2018-02-16T00:37:28.228Z,87.80
2018-02-16T00:40:51.572Z,87.80
2018-02-16T00:44:14.888Z,88.70
2018-02-16T00:47:38.181Z,88.60
2018-02-16T00:51:02.268Z,87.70
2018-02-16T00:54:26.430Z,87.80
2018-02-16T00:57:49.691Z,87.70
2018-02-16T01:01:12.954Z,87.70
2018-02-16T01:04:36.288Z,87.80
2018-02-16T01:07:59.567Z,87.40
2018-02-16T01:11:23.693Z,87.10
2018-02-16T01:14:47.010Z,87.10
2018-02-16T01:18:10.374Z,87.10
2018-02-16T01:21:33.692Z,87.10
2018-02-16T01:24:57.020Z,87.20
2018-02-16T01:28:20.341Z,87.40
2018-02-16T01:31:43.661Z,87.90
2018-02-16T01:35:06.916Z,88.40
2018-02-16T01:38:30.217Z,88.60
2018-02-16T01:41:53.498Z,87.60
2018-02-16T01:45:16.830Z,88.00
2018-02-16T01:48:40.094Z,88.20
2018-02-16T01:52:03.482Z,88.30
2018-02-16T01:55:27.462Z,88.30
2018-02-16T01:58:51.504Z,88.80
2018-02-16T02:02:15.564Z,88.90
2018-02-16T02:05:38.856Z,88.80
2018-02-16T02:09:02.904Z,88.40
2018-02-16T02:12:26.970Z,88.60
2018-02-16T02:15:50.264Z,88.60
2018-02-16T02:19:13.606Z,88.40
2018-02-16T02:22:37.746Z,88.20
2018-02-16T02:26:01.006Z,88.10
2018-02-16T02:29:24.330Z,87.80
2018-02-16T02:32:47.700Z,87.90
2018-02-16T02:36:10.957Z,87.60
2018-02-16T02:39:34.232Z,87.70
2018-02-16T02:42:57.504Z,88.50
2018-02-16T02:46:20.792Z,88.80
2018-02-16T02:49:44.826Z,88.40
2018-02-16T02:53:08.882Z,88.40
2018-02-16T02:56:32.146Z,88.30
2018-02-16T02:59:55.485Z,88.10
2018-02-16T03:03:18.765Z,88.50
2018-02-16T03:06:42.808Z,88.50
2018-02-16T03:10:06.134Z,88.50
2018-02-16T03:13:29.476Z,88.80
2018-02-16T03:16:52.764Z,89.10
2018-02-16T03:20:16.787Z,88.80
2018-02-16T03:23:40.862Z,88.70
2018-02-16T03:27:04.126Z,88.60
2018-02-16T03:30:27.496Z,88.70
2018-02-16T03:33:50.804Z,88.80
2018-02-16T03:37:14.092Z,88.30
2018-02-16T03:40:37.464Z,88.70
2018-02-16T03:44:00.745Z,88.60
2018-02-16T03:47:24.772Z,88.60
2018-02-16T03:50:48.844Z,88.60
2018-02-16T03:54:12.114Z,88.60
2018-02-16T03:57:35.386Z,88.70
2018-02-16T04:00:58.705Z,88.90
2018-02-16T04:04:22.078Z,88.90
2018-02-16T04:07:45.343Z,89.10
2018-02-16T04:11:08.594Z,89.70
2018-02-16T04:14:31.874Z,89.30
2018-02-16T04:17:55.146Z,89.10
2018-02-16T04:21:18.473Z,89.00
2018-02-16T04:24:42.509Z,88.50
2018-02-16T04:28:06.566Z,88.50
2018-02-16T04:31:29.840Z,88.40
2018-02-16T04:34:53.112Z,88.40
2018-02-16T04:38:16.393Z,88.50
2018-02-16T04:41:39.662Z,88.60
2018-02-16T04:45:03.800Z,89.00
2018-02-16T04:48:27.118Z,88.90
2018-02-16T04:51:50.387Z,89.00
2018-02-16T04:55:14.433Z,90.00
2018-02-16T04:58:38.480Z,90.00
2018-02-16T05:02:02.524Z,90.60
2018-02-16T05:05:25.786Z,90.60
2018-02-16T05:08:49.182Z,90.70
2018-02-16T05:12:12.474Z,91.00
2018-02-16T05:15:35.738Z,91.10
2018-02-16T05:18:59.869Z,91.10
2018-02-16T05:22:24.000Z,90.90
2018-02-16T05:25:47.271Z,90.90
2018-02-16T05:29:11.311Z,90.40
2018-02-16T05:32:35.349Z,90.40
2018-02-16T05:35:59.383Z,90.30
2018-02-16T05:39:23.449Z,90.10
2018-02-16T05:42:46.742Z,90.10
2018-02-16T05:46:10.760Z,88.90
2018-02-16T05:49:34.045Z,88.80
2018-02-16T05:52:58.074Z,89.00
2018-02-16T05:56:22.110Z,89.20
2018-02-16T05:59:46.237Z,89.50
2018-02-16T06:03:09.529Z,89.40
2018-02-16T06:06:33.591Z,89.20
2018-02-16T06:09:56.967Z,89.10
2018-02-16T06:13:20.221Z,89.20
2018-02-16T06:16:43.548Z,88.50
2018-02-16T06:20:06.867Z,88.80
2018-02-16T06:23:30.140Z,89.20
2018-02-16T06:26:54.167Z,88.60
2018-02-16T06:30:17.444Z,88.60
2018-02-16T06:33:41.579Z,88.90
2018-02-16T06:37:04.849Z,88.90
2018-02-16T06:40:28.122Z,89.60
2018-02-16T06:43:52.139Z,90.80
2018-02-16T06:47:15.475Z,90.90
2018-02-16T06:50:39.522Z,89.70
2018-02-16T06:54:03.643Z,89.80
2018-02-16T06:57:26.961Z,89.60
2018-02-16T07:00:50.286Z,89.90
2018-02-16T07:04:13.650Z,89.70
2018-02-16T07:07:36.949Z,90.60
2018-02-16T07:11:00.239Z,90.00
2018-02-16T07:14:23.520Z,90.10
2018-02-16T07:17:47.561Z,90.00
2018-02-16T07:21:12.701Z,89.70
2018-02-16T07:24:35.998Z,89.70
2018-02-16T07:28:01.059Z,90.60
2018-02-16T07:31:25.713Z,90.30
2018-02-16T07:34:49.041Z,90.30
2018-02-16T07:38:13.737Z,90.30
2018-02-16T07:41:37.810Z,90.20
2018-02-16T07:45:01.928Z,90.30
2018-02-16T07:48:25.290Z,90.30
2018-02-16T07:51:48.551Z,90.80
2018-02-16T07:55:11.883Z,88.40
2018-02-16T07:58:35.130Z,88.60
2018-02-16T08:01:58.405Z,88.00
2018-02-16T08:05:21.733Z,87.90
2018-02-16T08:08:44.995Z,87.30
2018-02-16T08:12:08.327Z,87.80
2018-02-16T08:15:33.287Z,87.10
2018-02-16T08:18:57.426Z,86.40
2018-02-16T08:22:20.718Z,87.00
2018-02-16T08:25:43.944Z,86.70
2018-02-16T08:29:07.201Z,85.00
2018-02-16T08:32:30.467Z,85.90
2018-02-16T08:35:53.815Z,84.90
2018-02-16T08:39:17.186Z,84.80
2018-02-16T08:42:40.446Z,85.60
2018-02-16T08:46:03.817Z,85.80
2018-02-16T08:49:27.094Z,84.20
2018-02-16T08:52:51.330Z,82.50
2018-02-16T08:56:14.626Z,82.40
2018-02-16T08:59:37.900Z,83.70
2018-02-16T09:03:01.209Z,82.10
2018-02-16T09:06:24.474Z,82.20
2018-02-16T09:09:47.821Z,83.40
2018-02-16T09:13:11.079Z,82.60
2018-02-16T09:16:34.351Z,81.50
2018-02-16T09:19:57.647Z,81.90
2018-02-16T09:23:20.915Z,80.70
2018-02-16T09:26:44.961Z,80.10
2018-02-16T09:30:08.258Z,80.00
2018-02-16T09:33:32.280Z,79.30
2018-02-16T09:36:55.727Z,79.20
2018-02-16T09:40:19.586Z,79.80
2018-02-16T09:43:42.853Z,79.80
2018-02-16T09:47:06.112Z,80.90
2018-02-16T09:50:29.441Z,81.20
2018-02-16T09:53:53.496Z,81.90
2018-02-16T09:57:17.546Z,79.50
2018-02-16T10:00:40.811Z,79.50
2018-02-16T10:04:04.077Z,80.00
2018-02-16T10:07:27.351Z,79.20
2018-02-16T10:10:50.628Z,77.30
2018-02-16T10:14:13.937Z,77.70
2018-02-16T10:17:37.226Z,77.80
2018-02-16T10:21:00.480Z,80.00
2018-02-16T10:24:23.746Z,79.10
2018-02-16T10:27:47.021Z,77.50
2018-02-16T10:31:10.290Z,79.20
2018-02-16T10:34:33.611Z,79.60
2018-02-16T10:37:56.907Z,78.10
2018-02-16T10:41:20.195Z,76.10
2018-02-16T10:44:43.610Z,74.00
2018-02-16T10:48:08.664Z,71.70
2018-02-16T10:51:32.034Z,71.70
2018-02-16T10:54:55.380Z,72.40
2018-02-16T10:58:19.438Z,70.20
2018-02-16T11:01:44.755Z,70.20
2018-02-16T11:05:12.880Z,70.00
2018-02-16T11:08:41.940Z,69.80
2018-02-16T11:12:05.249Z,71.00
2018-02-16T11:15:29.373Z,72.10
2018-02-16T11:18:53.413Z,71.50
2018-02-16T11:22:18.427Z,71.00
2018-02-16T11:25:42.546Z,70.10
2018-02-16T11:29:05.917Z,70.20
2018-02-16T11:32:29.288Z,69.90
2018-02-16T11:35:52.576Z,71.10
2018-02-16T11:39:15.924Z,69.70
2018-02-16T11:42:39.198Z,69.40
2018-02-16T11:49:19.329Z,70.30
2018-02-16T11:52:43.117Z,69.40
2018-02-16T11:56:06.608Z,67.70
2018-02-16T11:59:30.029Z,70.10
2018-02-16T12:02:53.416Z,69.70
2018-02-16T12:06:17.668Z,71.60
2018-02-16T12:09:41.814Z,70.30
2018-02-16T12:13:06.002Z,71.80
2018-02-16T12:16:29.446Z,71.80
2018-02-16T12:19:52.823Z,73.40
2018-02-16T12:23:16.231Z,72.70
2018-02-16T12:26:39.662Z,73.30
2018-02-16T12:30:03.006Z,72.80
2018-02-16T12:33:26.340Z,73.20
2018-02-16T12:36:49.739Z,71.80
2018-02-16T12:40:13.888Z,70.80
2018-02-16T12:43:38.048Z,70.60
2018-02-16T12:47:02.467Z,70.50
2018-02-16T12:50:25.743Z,70.60
2018-02-16T12:53:49.805Z,68.40
2018-02-16T12:57:13.100Z,68.40
2018-02-16T13:00:37.213Z,67.80
2018-02-16T13:04:00.523Z,67.80
2018-02-16T13:07:23.922Z,67.50
2018-02-16T13:10:48.046Z,67.20
2018-02-16T13:14:11.395Z,67.10
2018-02-16T13:17:34.726Z,68.90
2018-02-16T13:20:58.068Z,66.80
2018-02-16T13:24:22.103Z,67.20
2018-02-16T13:27:46.230Z,66.30
2018-02-16T13:31:09.528Z,66.30
2018-02-16T13:34:32.928Z,66.70
2018-02-16T13:37:57.061Z,65.90
2018-02-16T13:41:21.114Z,65.20
2018-02-16T13:44:45.216Z,65.00
2018-02-16T13:48:08.551Z,64.90
2018-02-16T13:51:31.936Z,65.30
2018-02-16T13:54:56.057Z,66.70
2018-02-16T13:58:19.333Z,66.70
2018-02-16T14:01:43.501Z,68.90
2018-02-16T14:05:06.837Z,68.80
2018-02-16T14:08:30.106Z,69.40
2018-02-16T14:11:54.140Z,69.10
2018-02-16T14:15:17.413Z,69.00
2018-02-16T14:18:41.543Z,67.30
2018-02-16T14:22:04.831Z,67.30
2018-02-16T14:25:28.950Z,65.00
2018-02-16T14:28:52.221Z,65.00
2018-02-16T14:32:15.549Z,64.80
2018-02-16T14:35:39.636Z,63.00
2018-02-16T14:39:03.684Z,63.70
2018-02-16T14:42:26.983Z,63.70
2018-02-16T14:45:50.246Z,65.90
2018-02-16T14:49:13.616Z,65.80
2018-02-16T14:52:37.080Z,65.20
2018-02-16T14:56:00.375Z,66.10
2018-02-16T14:59:24.434Z,65.10
2018-02-16T15:02:48.740Z,65.00
2018-02-16T15:06:13.239Z,64.80
2018-02-16T15:09:39.120Z,68.50
2018-02-16T15:13:03.165Z,68.40
2018-02-16T15:16:28.415Z,68.20
2018-02-16T15:19:52.762Z,68.20
2018-02-16T15:23:18.958Z,67.60
2018-02-16T15:26:44.365Z,67.90
2018-02-16T15:30:07.816Z,67.90
2018-02-16T15:33:31.310Z,68.40
2018-02-16T15:36:56.123Z,68.70
2018-02-16T15:40:20.581Z,69.50
2018-02-16T15:43:45.181Z,69.50
2018-02-16T15:47:08.625Z,70.60
2018-02-16T15:50:32.823Z,72.10
2018-02-16T15:53:57.021Z,72.70
2018-02-16T15:57:21.397Z,72.50
2018-02-16T16:00:45.010Z,72.50
2018-02-16T16:04:10.113Z,73.50
2018-02-16T16:07:33.493Z,73.40
2018-02-16T16:10:57.623Z,75.80
2018-02-16T16:14:20.995Z,75.20
2018-02-16T16:17:44.468Z,74.30
2018-02-16T16:21:07.861Z,74.90
2018-02-16T16:24:32.046Z,75.20
2018-02-16T16:27:55.423Z,75.20
2018-02-16T16:31:19.787Z,77.30
2018-02-16T16:34:43.139Z,77.30
2018-02-16T16:38:06.491Z,76.50
2018-02-16T16:41:30.825Z,77.10
2018-02-16T16:44:55.444Z,78.20
2018-02-16T16:48:18.861Z,77.00
2018-02-16T16:51:42.909Z,77.70
2018-02-16T16:55:06.343Z,78.10
2018-02-16T16:58:29.696Z,78.60
2018-02-16T17:01:54.553Z,78.60
2018-02-16T17:05:17.914Z,78.60
2018-02-16T17:08:41.246Z,79.10
2018-02-16T17:12:05.341Z,79.00
2018-02-16T17:15:29.403Z,79.00
2018-02-16T17:18:52.682Z,78.80
2018-02-16T17:22:16.942Z,78.90
2018-02-16T17:25:41.074Z,79.00
2018-02-16T17:29:05.147Z,79.30
2018-02-16T17:32:29.285Z,79.40
2018-02-16T17:35:53.609Z,79.30
2018-02-16T17:39:16.944Z,79.50
2018-02-16T17:42:40.198Z,79.90
2018-02-16T17:46:04.255Z,80.40
2018-02-16T17:49:28.288Z,80.30
2018-02-16T17:52:52.343Z,80.50
2018-02-16T17:56:15.602Z,80.40
2018-02-16T17:59:39.737Z,80.20
2018-02-16T18:03:03.790Z,80.30
2018-02-16T18:06:27.058Z,80.20
2018-02-16T18:09:50.381Z,80.20
2018-02-16T18:13:13.691Z,80.10
2018-02-16T18:16:37.735Z,80.70
2018-02-16T18:20:01.095Z,80.60
2018-02-16T18:23:24.602Z,80.50
2018-02-16T18:26:48.792Z,80.00
2018-02-16T18:30:12.922Z,80.10
2018-02-16T18:33:36.258Z,80.10
2018-02-16T18:37:00.383Z,81.40
2018-02-16T18:40:23.798Z,81.30
2018-02-16T18:43:47.148Z,80.40
2018-02-16T18:47:12.031Z,79.60
2018-02-16T18:50:35.329Z,79.60
2018-02-16T18:53:58.670Z,80.30
2018-02-16T18:57:21.978Z,80.70
2018-02-16T19:00:45.345Z,81.20
2018-02-16T19:04:08.687Z,80.70
2018-02-16T19:07:32.798Z,81.20
2018-02-16T19:10:56.101Z,81.10
2018-02-16T19:14:19.380Z,81.70
2018-02-16T19:17:42.686Z,81.60
2018-02-16T19:21:06.734Z,82.00
2018-02-16T19:24:30.075Z,82.00
2018-02-16T19:27:53.443Z,81.90
2018-02-16T19:31:16.812Z,82.00
2018-02-16T19:34:41.041Z,81.60
2018-02-16T19:38:04.888Z,81.20
2018-02-16T19:41:28.248Z,80.80
2018-02-16T19:44:51.581Z,81.10
2018-02-16T19:48:15.907Z,80.90
2018-02-16T19:51:39.266Z,80.70
2018-02-16T19:55:02.846Z,80.60
2018-02-16T19:58:26.456Z,80.80
2018-02-16T20:01:50.558Z,81.50
2018-02-16T20:05:13.930Z,81.30
2018-02-16T20:08:37.202Z,81.00
2018-02-16T20:12:00.548Z,81.30
2018-02-16T20:15:25.026Z,82.30
2018-02-16T20:27:17.417Z,82.80
2018-02-16T20:30:45.125Z,83.10
2018-02-16T20:34:08.574Z,83.30
2018-02-16T20:37:35.140Z,83.00
2018-02-16T20:40:58.524Z,82.60
2018-02-16T20:44:23.935Z,82.70
2018-02-16T20:47:48.204Z,83.00
2018-02-16T20:51:11.580Z,82.90
2018-02-16T20:54:34.956Z,83.10
2018-02-16T20:57:59.066Z,83.00
2018-02-16T21:01:24.174Z,82.90
2018-02-16T21:04:47.463Z,82.40
2018-02-16T21:08:10.789Z,81.90
2018-02-16T21:11:34.093Z,82.20
2018-02-16T21:14:57.379Z,79.90
2018-02-16T21:18:21.405Z,79.50
2018-02-16T21:21:44.778Z,79.40
2018-02-16T21:25:08.060Z,79.60
2018-02-16T21:28:32.199Z,79.90
2018-02-16T21:31:56.270Z,79.20
2018-02-16T21:35:19.540Z,79.10
2018-02-16T21:38:42.859Z,79.50
2018-02-16T21:42:06.231Z,79.00
2018-02-16T21:45:29.604Z,79.60
2018-02-16T21:48:52.882Z,79.30
2018-02-16T21:52:16.923Z,79.70
2018-02-16T21:55:40.964Z,80.00
2018-02-16T21:59:05.520Z,79.90
2018-02-16T22:02:28.803Z,80.10
2018-02-16T22:05:52.175Z,80.20
2018-02-16T22:09:15.463Z,81.60
2018-02-16T22:12:39.583Z,80.70
2018-02-16T22:16:02.950Z,80.60
2018-02-16T22:19:29.443Z,80.90
2018-02-16T22:22:52.832Z,81.50
2018-02-16T22:26:16.924Z,80.30
2018-02-16T22:29:49.533Z,81.20
2018-02-16T22:33:14.582Z,81.90
2018-02-16T22:36:38.281Z,81.80
2018-02-16T22:40:01.870Z,82.00
2018-02-16T22:43:26.370Z,81.40
2018-02-16T22:46:50.744Z,81.50
2018-02-16T22:50:14.811Z,81.50
2018-02-16T22:53:38.169Z,81.40
2018-02-16T22:57:03.007Z,80.80
2018-02-16T23:00:26.287Z,80.60
2018-02-16T23:03:49.758Z,80.60
2018-02-16T23:07:19.426Z,81.40
2018-02-16T23:10:45.851Z,81.30
2018-02-16T23:14:17.721Z,81.30
2018-02-16T23:17:41.087Z,81.30
2018-02-16T23:21:05.302Z,81.40
2018-02-16T23:24:30.494Z,82.60
2018-02-16T23:31:35.267Z,82.30
2018-02-16T23:34:58.570Z,82.10
2018-02-16T23:38:21.897Z,82.90
2018-02-16T23:41:45.237Z,83.50
2018-02-16T23:45:09.278Z,82.60
2018-02-16T23:48:33.322Z,82.50
2018-02-16T23:51:56.830Z,82.40
2018-02-16T23:55:20.157Z,83.00
2018-02-16T23:58:43.477Z,83.60
